Zenith Leader — 2ACU6 — position and weather

sailwx.info

Track history (hours):
 
Tides and Currents Weather Stations Pressure Air Temp Water Temp Dewpoint Dewpoint Depression Visibility Wind Speed Wind Dir Waves Ship Positions

Zenith Leader

Last reported at 2014-Nov-01 02:33 UTC. Time now 2014-Nov-01 02:40 UTC.
Position S 27°23' E 153°10'.

Length 199 m; draft 8.8 m.

Type: Cargo ship. MMSI: 235058697.

Date/timePositionNaut miles runAvg speedWind from/ knotsBaromVisibWave heightAir tempDewpointWater temp
2014-Nov-01 02:33S 27°23' E 153°10'0 0.0
2014-Nov-01 01:33S 27°23' E 153°10'0 0.0
2014-Nov-01 00:33S 27°23' E 153°10'0 0.0
2014-Oct-31 23:33S 27°23' E 153°10'0 0.0
2014-Oct-31 22:33S 27°23' E 153°10'0 0.0
2014-Oct-31 21:33S 27°23' E 153°10'0 0.0
2014-Oct-31 20:33S 27°23' E 153°10'0 0.0
2014-Oct-31 19:33S 27°23' E 153°10'0 0.0
2014-Oct-31 18:33S 27°23' E 153°10'1 0.8
2014-Oct-31 17:33S 27°22' E 153°10'9 9.1
2014-Oct-31 16:33S 27°15' E 153°18'1312.7
2014-Oct-31 15:33S 27°03' E 153°17'1515.0
2014-Oct-31 14:33S 26°49' E 153°09'9 9.1
2014-Oct-31 13:33S 26°41' E 153°13'7 7.1
2014-Oct-31 12:33S 26°35' E 153°17'9 8.2
2014-Oct-31 11:30S 26°27' E 153°22'1111.3
2014-Oct-31 10:32S 26°17' E 153°26'1111.0
2014-Oct-31 09:33S 26°06' E 153°27'1111.4
2014-Oct-31 08:33S 25°55' E 153°27'1010.0
2014-Oct-31 07:30S 25°44' E 153°27'  
Track history (hours):
 
Tides and Currents Weather Stations Pressure Air Temp Water Temp Dewpoint Dewpoint Depression Visibility Wind Speed Wind Dir Waves Ship Positions

Zenith Leader

Last reported at 2014-Nov-01 02:33 UTC. Time now 2014-Nov-01 02:40 UTC.
Position S 27°23' E 153°10'.

Length 199 m; draft 8.8 m.

Type: Cargo ship. MMSI: 235058697.

Date/timePositionNaut miles runAvg speedWind from/ knotsBaromVisibWave heightAir tempDewpointWater temp
2014-Nov-01 02:33S 27°23' E 153°10'0 0.0
2014-Nov-01 01:33S 27°23' E 153°10'0 0.0
2014-Nov-01 00:33S 27°23' E 153°10'0 0.0
2014-Oct-31 23:33S 27°23' E 153°10'0 0.0
2014-Oct-31 22:33S 27°23' E 153°10'0 0.0
2014-Oct-31 21:33S 27°23' E 153°10'0 0.0
2014-Oct-31 20:33S 27°23' E 153°10'0 0.0
2014-Oct-31 19:33S 27°23' E 153°10'0 0.0
2014-Oct-31 18:33S 27°23' E 153°10'1 0.8
2014-Oct-31 17:33S 27°22' E 153°10'9 9.1
2014-Oct-31 16:33S 27°15' E 153°18'1312.7
2014-Oct-31 15:33S 27°03' E 153°17'1515.0
2014-Oct-31 14:33S 26°49' E 153°09'9 9.1
2014-Oct-31 13:33S 26°41' E 153°13'7 7.1
2014-Oct-31 12:33S 26°35' E 153°17'9 8.2
2014-Oct-31 11:30S 26°27' E 153°22'1111.3
2014-Oct-31 10:32S 26°17' E 153°26'1111.0
2014-Oct-31 09:33S 26°06' E 153°27'1111.4
2014-Oct-31 08:33S 25°55' E 153°27'1010.0
2014-Oct-31 07:30S 25°44' E 153°27'  

Dump ship's entire track history